Liberty Grace — WADN — position and weather

sailwx.info

Track history (hours):
 
Tides and Currents Weather Stations Pressure Air Temp Water Temp Dewpoint Dewpoint Depression Visibility Wind Speed Wind Dir Waves Ship Positions

Liberty Grace

More information available from US FCC via Universal Licensing System and Coast Guard Vessel Documentation Center.

Last reported at 2014-Jul-25 12:00 UTC. Time now 2014-Jul-30 23:17 UTC.
Position N 32°24' W 044°00'.

Type: Cargo ship. MMSI: 338219000.

Wind from 030 at 4 knots

Barometer 1024.5 mb
Air temperature 28.0 ° C
Visibility: greater than 10.8 NM
Dewpoint 22.4 ° C
Water temperature 26.0 ° C

Date/timePositionNaut miles runAvg speedWind from/ knotsBaromVisibWave heightAir tempDewpointWater temp
2014-Jul-25 12:00N 32°24' W 044°00'15713.1 030 / 41024.510.8 28.022.426.0
2014-Jul-25 00:00N 32°36' W 040°54'60113.5 010 / 111023.510.8 0.523.020.125.0
2014-Jul-23 03:25N 34°54' W 029°11'1213.5
2014-Jul-23 02:32N 34°56' W 028°57'1813.6
2014-Jul-23 01:12N 34°59' W 028°35'1013.4
2014-Jul-23 00:28N 35°01' W 028°23'1213.1
2014-Jul-22 23:33N 35°02' W 028°08'1313.4
2014-Jul-22 22:33N 35°05' W 027°52'2813.7
2014-Jul-22 20:29N 35°09' W 027°18'1714.2
2014-Jul-22 19:17N 35°11' W 026°58'5613.6
2014-Jul-22 15:10N 35°20' W 025°50'813.3
2014-Jul-22 14:33N 35°21' W 025°40'1413.3
2014-Jul-22 13:32N 35°23' W 025°23'1313.3
2014-Jul-22 12:33N 35°25' W 025°08'1313.4
2014-Jul-22 11:33N 35°26' W 024°51'1413.3
2014-Jul-22 10:30N 35°27' W 024°34'1313.4
2014-Jul-22 09:32N 35°29' W 024°18'1513.4
2014-Jul-22 08:27N 35°31' W 024°00'1213.8
2014-Jul-22 07:33N 35°33' W 023°45'1313.6
2014-Jul-22 06:34N 35°35' W 023°29'1913.9
2014-Jul-22 05:10N 35°37' W 023°06'24914.5
2014-Jul-21 12:00N 35°54' W 018°00'49513.8 350 / 111024.010.8 1.0 23.0
2014-Jul-20 00:00N 36°00' W 007°48'23612.7 270 / 151019.010.8 0.520.016.924.0
2014-Jul-19 05:25N 36°22' W 002°57'3913.7
2014-Jul-19 02:34N 36°27' W 002°09'2813.9
2014-Jul-19 00:32N 36°32' W 001°34'7513.9
2014-Jul-18 19:08N 36°43' W 000°02'6413.6
2014-Jul-18 14:23N 36°51' E 001°18'1214.1
2014-Jul-18 13:34N 36°53' E 001°32'1414.1
2014-Jul-18 12:33N 36°55' E 001°50'4 6.3
2014-Jul-18 12:00N 36°54' E 001°54'1124.6 090 / 171013.510.8 1.029.022.025.0
2014-Jul-18 11:33N 36°57' E 002°07'1313.5
2014-Jul-18 10:33N 36°59' E 002°24'1313.3
2014-Jul-18 09:34N 36°60' E 002°40'1313.1
2014-Jul-18 08:33N 37°02' E 002°56'1313.2
2014-Jul-18 07:33N 37°04' E 003°13'1413.6
2014-Jul-18 06:34N 37°07' E 003°29'1414.0
2014-Jul-18 05:34N 37°08' E 003°47'1413.8
2014-Jul-18 04:33N 37°10' E 004°04'1413.8
2014-Jul-18 03:33N 37°12' E 004°21'1413.9
2014-Jul-18 02:34N 37°14' E 004°38'1414.1
2014-Jul-18 01:33N 37°16' E 004°56'1414.1
2014-Jul-18 00:33N 37°18' E 005°13'1414.1
2014-Jul-17 23:34N 37°20' E 005°31'1413.9
2014-Jul-17 22:33N 37°23' E 005°48'1413.7
2014-Jul-17 21:33N 37°25' E 006°05'1614.1
2014-Jul-17 20:27N 37°27' E 006°25'1614.3
2014-Jul-17 19:21N 37°29' E 006°44'1814.1
2014-Jul-17 18:05N 37°32' E 007°07'26113.2
2014-Jul-16 22:16N 36°57' E 012°32'1013.7
2014-Jul-16 21:33N 36°54' E 012°43'1313.5
2014-Jul-16 20:34N 36°50' E 012°59'1313.4
2014-Jul-16 19:34N 36°46' E 013°15'1313.4
2014-Jul-16 18:33N 36°42' E 013°31'1413.6
2014-Jul-16 17:33N 36°38' E 013°47'1313.5
2014-Jul-16 16:33N 36°33' E 014°03'1413.7
2014-Jul-16 15:33N 36°30' E 014°20'1313.5
2014-Jul-16 14:33N 36°25' E 014°36'1313.2
2014-Jul-16 13:34N 36°21' E 014°51'1413.6
2014-Jul-16 12:34N 36°17' E 015°07'  
Track history (hours):
 
Tides and Currents Weather Stations Pressure Air Temp Water Temp Dewpoint Dewpoint Depression Visibility Wind Speed Wind Dir Waves Ship Positions

Liberty Grace

More information available from US FCC via Universal Licensing System and Coast Guard Vessel Documentation Center.

Last reported at 2014-Jul-25 12:00 UTC. Time now 2014-Jul-30 23:17 UTC.
Position N 32°24' W 044°00'.

Type: Cargo ship. MMSI: 338219000.

Wind from 030 at 4 knots

Barometer 1024.5 mb
Air temperature 28.0 ° C
Visibility: greater than 10.8 NM
Dewpoint 22.4 ° C
Water temperature 26.0 ° C

Date/timePositionNaut miles runAvg speedWind from/ knotsBaromVisibWave heightAir tempDewpointWater temp
2014-Jul-25 12:00N 32°24' W 044°00'15713.1 030 / 41024.510.8 28.022.426.0
2014-Jul-25 00:00N 32°36' W 040°54'60113.5 010 / 111023.510.8 0.523.020.125.0
2014-Jul-23 03:25N 34°54' W 029°11'1213.5
2014-Jul-23 02:32N 34°56' W 028°57'1813.6
2014-Jul-23 01:12N 34°59' W 028°35'1013.4
2014-Jul-23 00:28N 35°01' W 028°23'1213.1
2014-Jul-22 23:33N 35°02' W 028°08'1313.4
2014-Jul-22 22:33N 35°05' W 027°52'2813.7
2014-Jul-22 20:29N 35°09' W 027°18'1714.2
2014-Jul-22 19:17N 35°11' W 026°58'5613.6
2014-Jul-22 15:10N 35°20' W 025°50'813.3
2014-Jul-22 14:33N 35°21' W 025°40'1413.3
2014-Jul-22 13:32N 35°23' W 025°23'1313.3
2014-Jul-22 12:33N 35°25' W 025°08'1313.4
2014-Jul-22 11:33N 35°26' W 024°51'1413.3
2014-Jul-22 10:30N 35°27' W 024°34'1313.4
2014-Jul-22 09:32N 35°29' W 024°18'1513.4
2014-Jul-22 08:27N 35°31' W 024°00'1213.8
2014-Jul-22 07:33N 35°33' W 023°45'1313.6
2014-Jul-22 06:34N 35°35' W 023°29'1913.9
2014-Jul-22 05:10N 35°37' W 023°06'24914.5
2014-Jul-21 12:00N 35°54' W 018°00'49513.8 350 / 111024.010.8 1.0 23.0
2014-Jul-20 00:00N 36°00' W 007°48'23612.7 270 / 151019.010.8 0.520.016.924.0
2014-Jul-19 05:25N 36°22' W 002°57'3913.7
2014-Jul-19 02:34N 36°27' W 002°09'2813.9
2014-Jul-19 00:32N 36°32' W 001°34'7513.9
2014-Jul-18 19:08N 36°43' W 000°02'6413.6
2014-Jul-18 14:23N 36°51' E 001°18'1214.1
2014-Jul-18 13:34N 36°53' E 001°32'1414.1
2014-Jul-18 12:33N 36°55' E 001°50'4 6.3
2014-Jul-18 12:00N 36°54' E 001°54'1124.6 090 / 171013.510.8 1.029.022.025.0
2014-Jul-18 11:33N 36°57' E 002°07'1313.5
2014-Jul-18 10:33N 36°59' E 002°24'1313.3
2014-Jul-18 09:34N 36°60' E 002°40'1313.1
2014-Jul-18 08:33N 37°02' E 002°56'1313.2
2014-Jul-18 07:33N 37°04' E 003°13'1413.6
2014-Jul-18 06:34N 37°07' E 003°29'1414.0
2014-Jul-18 05:34N 37°08' E 003°47'1413.8
2014-Jul-18 04:33N 37°10' E 004°04'1413.8
2014-Jul-18 03:33N 37°12' E 004°21'1413.9
2014-Jul-18 02:34N 37°14' E 004°38'1414.1
2014-Jul-18 01:33N 37°16' E 004°56'1414.1
2014-Jul-18 00:33N 37°18' E 005°13'1414.1
2014-Jul-17 23:34N 37°20' E 005°31'1413.9
2014-Jul-17 22:33N 37°23' E 005°48'1413.7
2014-Jul-17 21:33N 37°25' E 006°05'1614.1
2014-Jul-17 20:27N 37°27' E 006°25'1614.3
2014-Jul-17 19:21N 37°29' E 006°44'1814.1
2014-Jul-17 18:05N 37°32' E 007°07'26113.2
2014-Jul-16 22:16N 36°57' E 012°32'1013.7
2014-Jul-16 21:33N 36°54' E 012°43'1313.5
2014-Jul-16 20:34N 36°50' E 012°59'1313.4
2014-Jul-16 19:34N 36°46' E 013°15'1313.4
2014-Jul-16 18:33N 36°42' E 013°31'1413.6
2014-Jul-16 17:33N 36°38' E 013°47'1313.5
2014-Jul-16 16:33N 36°33' E 014°03'1413.7
2014-Jul-16 15:33N 36°30' E 014°20'1313.5
2014-Jul-16 14:33N 36°25' E 014°36'1313.2
2014-Jul-16 13:34N 36°21' E 014°51'1413.6
2014-Jul-16 12:34N 36°17' E 015°07'  

Dump ship's entire track history